sensor_id;sensor_type;location;lat;lon;timestamp;P1;durP1;ratioP1;P2;durP2;ratioP2
65936;SDS011;52707;52.086;5.418;2023-04-24T00:01:30;2.92;;;0.80;;
65936;SDS011;52707;52.086;5.418;2023-04-24T00:03:57;2.28;;;0.98;;
65936;SDS011;52707;52.086;5.418;2023-04-24T00:06:26;2.42;;;1.17;;
65936;SDS011;52707;52.086;5.418;2023-04-24T00:09:02;3.90;;;1.50;;
65936;SDS011;52707;52.086;5.418;2023-04-24T00:11:29;2.13;;;1.67;;
65936;SDS011;52707;52.086;5.418;2023-04-24T00:13:56;2.55;;;1.80;;
65936;SDS011;52707;52.086;5.418;2023-04-24T00:16:22;3.47;;;1.75;;
65936;SDS011;52707;52.086;5.418;2023-04-24T00:18:49;3.33;;;2.20;;
65936;SDS011;52707;52.086;5.418;2023-04-24T00:21:15;2.47;;;2.22;;
65936;SDS011;52707;52.086;5.418;2023-04-24T00:23:43;4.78;;;1.90;;
65936;SDS011;52707;52.086;5.418;2023-04-24T00:26:10;2.10;;;1.90;;
65936;SDS011;52707;52.086;5.418;2023-04-24T00:28:36;3.90;;;2.10;;
65936;SDS011;52707;52.086;5.418;2023-04-24T00:31:03;4.28;;;2.10;;
65936;SDS011;52707;52.086;5.418;2023-04-24T00:33:29;5.25;;;2.13;;
65936;SDS011;52707;52.086;5.418;2023-04-24T00:35:55;2.88;;;2.28;;
65936;SDS011;52707;52.086;5.418;2023-04-24T00:38:22;2.22;;;2.00;;
65936;SDS011;52707;52.086;5.418;2023-04-24T00:40:48;2.45;;;2.00;;
65936;SDS011;52707;52.086;5.418;2023-04-24T00:43:16;3.88;;;1.77;;
65936;SDS011;52707;52.086;5.418;2023-04-24T00:45:42;2.38;;;1.65;;
65936;SDS011;52707;52.086;5.418;2023-04-24T00:48:09;3.13;;;2.05;;
65936;SDS011;52707;52.086;5.418;2023-04-24T00:50:36;3.53;;;2.28;;
65936;SDS011;52707;52.086;5.418;2023-04-24T00:53:02;3.17;;;2.03;;
65936;SDS011;52707;52.086;5.418;2023-04-24T00:55:29;4.15;;;2.60;;
65936;SDS011;52707;52.086;5.418;2023-04-24T00:57:55;2.50;;;2.30;;
65936;SDS011;52707;52.086;5.418;2023-04-24T01:00:22;7.20;;;3.15;;
65936;SDS011;52707;52.086;5.418;2023-04-24T01:02:48;9.93;;;3.20;;
65936;SDS011;52707;52.086;5.418;2023-04-24T01:05:15;4.90;;;3.40;;
65936;SDS011;52707;52.086;5.418;2023-04-24T01:07:43;4.18;;;3.63;;
65936;SDS011;52707;52.086;5.418;2023-04-24T01:10:11;7.97;;;3.47;;
65936;SDS011;52707;52.086;5.418;2023-04-24T01:12:38;4.03;;;3.20;;
65936;SDS011;52707;52.086;5.418;2023-04-24T01:15:05;3.85;;;3.38;;
65936;SDS011;52707;52.086;5.418;2023-04-24T01:17:32;7.63;;;4.07;;
65936;SDS011;52707;52.086;5.418;2023-04-24T01:19:59;8.55;;;3.95;;
65936;SDS011;52707;52.086;5.418;2023-04-24T01:22:26;4.47;;;3.53;;
65936;SDS011;52707;52.086;5.418;2023-04-24T01:24:53;5.32;;;3.65;;
65936;SDS011;52707;52.086;5.418;2023-04-24T01:27:19;5.93;;;3.15;;
65936;SDS011;52707;52.086;5.418;2023-04-24T01:29:46;6.55;;;3.92;;
65936;SDS011;52707;52.086;5.418;2023-04-24T01:32:15;3.67;;;3.33;;
65936;SDS011;52707;52.086;5.418;2023-04-24T01:34:41;5.03;;;4.18;;
65936;SDS011;52707;52.086;5.418;2023-04-24T01:37:08;5.45;;;4.00;;
65936;SDS011;52707;52.086;5.418;2023-04-24T01:39:34;8.77;;;4.63;;
65936;SDS011;52707;52.086;5.418;2023-04-24T01:42:00;7.43;;;4.63;;
65936;SDS011;52707;52.086;5.418;2023-04-24T01:44:28;7.72;;;4.30;;
65936;SDS011;52707;52.086;5.418;2023-04-24T01:46:55;5.45;;;4.60;;
65936;SDS011;52707;52.086;5.418;2023-04-24T01:49:21;7.22;;;4.30;;
65936;SDS011;52707;52.086;5.418;2023-04-24T01:51:48;5.57;;;4.50;;
65936;SDS011;52707;52.086;5.418;2023-04-24T01:54:14;5.72;;;4.05;;
65936;SDS011;52707;52.086;5.418;2023-04-24T01:56:41;4.13;;;3.75;;
65936;SDS011;52707;52.086;5.418;2023-04-24T01:59:11;5.53;;;3.28;;
65936;SDS011;52707;52.086;5.418;2023-04-24T02:01:38;3.22;;;3.03;;
65936;SDS011;52707;52.086;5.418;2023-04-24T02:04:04;3.70;;;3.13;;
65936;SDS011;52707;52.086;5.418;2023-04-24T02:06:31;3.95;;;3.17;;
65936;SDS011;52707;52.086;5.418;2023-04-24T02:08:58;3.97;;;3.58;;
65936;SDS011;52707;52.086;5.418;2023-04-24T02:11:25;4.93;;;3.88;;
65936;SDS011;52707;52.086;5.418;2023-04-24T02:13:51;4.95;;;3.83;;
65936;SDS011;52707;52.086;5.418;2023-04-24T02:16:18;4.43;;;3.78;;
65936;SDS011;52707;52.086;5.418;2023-04-24T02:18:44;4.40;;;3.25;;
65936;SDS011;52707;52.086;5.418;2023-04-24T02:21:10;4.97;;;3.45;;
65936;SDS011;52707;52.086;5.418;2023-04-24T02:23:37;3.63;;;3.25;;
65936;SDS011;52707;52.086;5.418;2023-04-24T02:26:03;6.93;;;3.38;;
65936;SDS011;52707;52.086;5.418;2023-04-24T02:28:29;4.95;;;3.70;;
65936;SDS011;52707;52.086;5.418;2023-04-24T02:30:56;4.35;;;3.70;;
65936;SDS011;52707;52.086;5.418;2023-04-24T02:33:22;4.15;;;3.75;;
65936;SDS011;52707;52.086;5.418;2023-04-24T02:35:48;4.30;;;3.97;;
65936;SDS011;52707;52.086;5.418;2023-04-24T02:38:14;4.95;;;4.07;;
65936;SDS011;52707;52.086;5.418;2023-04-24T02:40:41;6.63;;;4.78;;
65936;SDS011;52707;52.086;5.418;2023-04-24T02:43:07;4.60;;;4.10;;
65936;SDS011;52707;52.086;5.418;2023-04-24T02:45:33;6.35;;;3.92;;
65936;SDS011;52707;52.086;5.418;2023-04-24T02:48:00;4.95;;;4.20;;
65936;SDS011;52707;52.086;5.418;2023-04-24T02:50:27;6.63;;;3.95;;
65936;SDS011;52707;52.086;5.418;2023-04-24T02:52:53;4.22;;;3.63;;
65936;SDS011;52707;52.086;5.418;2023-04-24T02:55:19;6.28;;;4.07;;
65936;SDS011;52707;52.086;5.418;2023-04-24T02:57:46;4.60;;;3.75;;
65936;SDS011;52707;52.086;5.418;2023-04-24T03:00:12;4.55;;;3.83;;
65936;SDS011;52707;52.086;5.418;2023-04-24T03:02:39;7.00;;;4.38;;
65936;SDS011;52707;52.086;5.418;2023-04-24T03:05:06;4.60;;;3.90;;
65936;SDS011;52707;52.086;5.418;2023-04-24T03:07:33;7.10;;;3.78;;
65936;SDS011;52707;52.086;5.418;2023-04-24T03:10:00;4.53;;;4.13;;
65936;SDS011;52707;52.086;5.418;2023-04-24T03:12:26;6.65;;;4.47;;
65936;SDS011;52707;52.086;5.418;2023-04-24T03:14:52;4.68;;;4.20;;
65936;SDS011;52707;52.086;5.418;2023-04-24T03:17:18;8.35;;;4.82;;
65936;SDS011;52707;52.086;5.418;2023-04-24T03:19:45;5.28;;;4.78;;
65936;SDS011;52707;52.086;5.418;2023-04-24T03:22:11;5.35;;;4.88;;
65936;SDS011;52707;52.086;5.418;2023-04-24T03:24:38;5.78;;;5.22;;
65936;SDS011;52707;52.086;5.418;2023-04-24T03:27:04;5.75;;;4.90;;
65936;SDS011;52707;52.086;5.418;2023-04-24T03:29:30;4.60;;;4.20;;
65936;SDS011;52707;52.086;5.418;2023-04-24T03:31:57;3.75;;;3.40;;
65936;SDS011;52707;52.086;5.418;2023-04-24T03:34:23;3.80;;;3.10;;
65936;SDS011;52707;52.086;5.418;2023-04-24T03:36:50;3.50;;;3.20;;
65936;SDS011;52707;52.086;5.418;2023-04-24T03:39:16;4.47;;;3.47;;
65936;SDS011;52707;52.086;5.418;2023-04-24T03:41:42;3.40;;;2.70;;
65936;SDS011;52707;52.086;5.418;2023-04-24T03:44:09;3.00;;;2.80;;
65936;SDS011;52707;52.086;5.418;2023-04-24T03:46:35;4.03;;;3.63;;
65936;SDS011;52707;52.086;5.418;2023-04-24T03:49:01;4.35;;;3.83;;
65936;SDS011;52707;52.086;5.418;2023-04-24T03:51:28;4.50;;;4.03;;
65936;SDS011;52707;52.086;5.418;2023-04-24T03:53:56;7.47;;;4.60;;
65936;SDS011;52707;52.086;5.418;2023-04-24T03:56:22;5.82;;;4.20;;
65936;SDS011;52707;52.086;5.418;2023-04-24T03:58:48;5.00;;;4.15;;
65936;SDS011;52707;52.086;5.418;2023-04-24T04:01:15;5.93;;;4.35;;
65936;SDS011;52707;52.086;5.418;2023-04-24T04:03:42;4.68;;;3.33;;
65936;SDS011;52707;52.086;5.418;2023-04-24T04:06:09;3.30;;;3.08;;
65936;SDS011;52707;52.086;5.418;2023-04-24T04:08:37;7.43;;;3.72;;
65936;SDS011;52707;52.086;5.418;2023-04-24T04:11:03;3.70;;;3.30;;
65936;SDS011;52707;52.086;5.418;2023-04-24T04:13:30;2.83;;;2.63;;
65936;SDS011;52707;52.086;5.418;2023-04-24T04:15:57;4.28;;;2.70;;
65936;SDS011;52707;52.086;5.418;2023-04-24T04:18:23;4.82;;;2.60;;
65936;SDS011;52707;52.086;5.418;2023-04-24T04:20:49;3.10;;;2.70;;
65936;SDS011;52707;52.086;5.418;2023-04-24T04:23:15;3.10;;;2.80;;
65936;SDS011;52707;52.086;5.418;2023-04-24T04:25:42;5.82;;;3.08;;
65936;SDS011;52707;52.086;5.418;2023-04-24T04:28:08;3.95;;;3.40;;
65936;SDS011;52707;52.086;5.418;2023-04-24T04:30:34;8.40;;;3.05;;
65936;SDS011;52707;52.086;5.418;2023-04-24T04:33:01;3.67;;;3.38;;
65936;SDS011;52707;52.086;5.418;2023-04-24T04:35:28;4.40;;;3.72;;
65936;SDS011;52707;52.086;5.418;2023-04-24T04:37:54;4.22;;;3.20;;
65936;SDS011;52707;52.086;5.418;2023-04-24T04:40:25;10.10;;;6.22;;
65936;SDS011;52707;52.086;5.418;2023-04-24T04:42:51;8.10;;;5.35;;
65936;SDS011;52707;52.086;5.418;2023-04-24T04:45:19;6.80;;;5.30;;
65936;SDS011;52707;52.086;5.418;2023-04-24T04:47:46;4.88;;;4.43;;
65936;SDS011;52707;52.086;5.418;2023-04-24T04:50:13;6.50;;;4.28;;
65936;SDS011;52707;52.086;5.418;2023-04-24T04:52:39;7.85;;;4.78;;
65936;SDS011;52707;52.086;5.418;2023-04-24T04:55:06;6.50;;;4.50;;
65936;SDS011;52707;52.086;5.418;2023-04-24T04:57:32;7.25;;;4.72;;
65936;SDS011;52707;52.086;5.418;2023-04-24T04:59:58;7.65;;;4.53;;
65936;SDS011;52707;52.086;5.418;2023-04-24T05:02:25;5.68;;;4.70;;
65936;SDS011;52707;52.086;5.418;2023-04-24T05:04:51;4.80;;;4.10;;
65936;SDS011;52707;52.086;5.418;2023-04-24T05:07:18;4.40;;;4.00;;
65936;SDS011;52707;52.086;5.418;2023-04-24T05:09:44;3.78;;;3.47;;
65936;SDS011;52707;52.086;5.418;2023-04-24T05:12:11;3.30;;;3.00;;
65936;SDS011;52707;52.086;5.418;2023-04-24T05:14:37;3.75;;;3.42;;
65936;SDS011;52707;52.086;5.418;2023-04-24T05:17:03;4.60;;;3.60;;
65936;SDS011;52707;52.086;5.418;2023-04-24T05:19:30;5.78;;;3.78;;
65936;SDS011;52707;52.086;5.418;2023-04-24T05:21:58;3.17;;;2.92;;
65936;SDS011;52707;52.086;5.418;2023-04-24T05:24:25;6.20;;;3.70;;
65936;SDS011;52707;52.086;5.418;2023-04-24T05:26:51;5.63;;;3.88;;
65936;SDS011;52707;52.086;5.418;2023-04-24T05:29:17;5.43;;;4.15;;
65936;SDS011;52707;52.086;5.418;2023-04-24T05:31:45;6.47;;;4.18;;
65936;SDS011;52707;52.086;5.418;2023-04-24T05:34:11;7.55;;;4.60;;
65936;SDS011;52707;52.086;5.418;2023-04-24T05:36:37;6.95;;;4.50;;
65936;SDS011;52707;52.086;5.418;2023-04-24T05:39:04;6.28;;;4.57;;
65936;SDS011;52707;52.086;5.418;2023-04-24T05:41:33;6.47;;;4.32;;
65936;SDS011;52707;52.086;5.418;2023-04-24T05:44:00;6.78;;;4.72;;
65936;SDS011;52707;52.086;5.418;2023-04-24T05:46:26;6.40;;;3.70;;
65936;SDS011;52707;52.086;5.418;2023-04-24T05:48:52;4.30;;;3.28;;
65936;SDS011;52707;52.086;5.418;2023-04-24T05:51:18;9.65;;;4.22;;
65936;SDS011;52707;52.086;5.418;2023-04-24T05:53:45;6.90;;;3.90;;
65936;SDS011;52707;52.086;5.418;2023-04-24T05:56:11;5.85;;;3.83;;
65936;SDS011;52707;52.086;5.418;2023-04-24T05:58:37;5.60;;;3.45;;
65936;SDS011;52707;52.086;5.418;2023-04-24T06:01:04;3.55;;;3.25;;
65936;SDS011;52707;52.086;5.418;2023-04-24T06:03:31;6.65;;;3.70;;
65936;SDS011;52707;52.086;5.418;2023-04-24T06:05:57;8.18;;;4.63;;
65936;SDS011;52707;52.086;5.418;2023-04-24T06:08:24;5.72;;;4.18;;
65936;SDS011;52707;52.086;5.418;2023-04-24T06:10:50;5.50;;;3.13;;
65936;SDS011;52707;52.086;5.418;2023-04-24T06:13:16;6.95;;;3.40;;
65936;SDS011;52707;52.086;5.418;2023-04-24T06:15:43;4.65;;;2.53;;
65936;SDS011;52707;52.086;5.418;2023-04-24T06:18:09;2.20;;;1.80;;
65936;SDS011;52707;52.086;5.418;2023-04-24T06:20:38;2.00;;;1.50;;
65936;SDS011;52707;52.086;5.418;2023-04-24T06:23:05;1.35;;;1.10;;
65936;SDS011;52707;52.086;5.418;2023-04-24T06:25:31;2.63;;;1.40;;
65936;SDS011;52707;52.086;5.418;2023-04-24T06:27:58;1.50;;;1.40;;
65936;SDS011;52707;52.086;5.418;2023-04-24T06:30:24;4.78;;;0.90;;
65936;SDS011;52707;52.086;5.418;2023-04-24T06:32:50;1.08;;;0.95;;
65936;SDS011;52707;52.086;5.418;2023-04-24T06:35:17;4.32;;;1.00;;
65936;SDS011;52707;52.086;5.418;2023-04-24T06:37:43;1.13;;;0.93;;
65936;SDS011;52707;52.086;5.418;2023-04-24T06:40:09;1.77;;;1.00;;
65936;SDS011;52707;52.086;5.418;2023-04-24T06:42:36;1.13;;;1.00;;
65936;SDS011;52707;52.086;5.418;2023-04-24T06:45:02;2.65;;;1.58;;
65936;SDS011;52707;52.086;5.418;2023-04-24T06:47:29;4.22;;;1.80;;
65936;SDS011;52707;52.086;5.418;2023-04-24T06:49:55;3.20;;;2.50;;
65936;SDS011;52707;52.086;5.418;2023-04-24T06:52:22;6.38;;;3.40;;
65936;SDS011;52707;52.086;5.418;2023-04-24T06:54:48;5.63;;;4.13;;
65936;SDS011;52707;52.086;5.418;2023-04-24T06:57:15;8.30;;;4.80;;
65936;SDS011;52707;52.086;5.418;2023-04-24T06:59:42;8.13;;;5.10;;
65936;SDS011;52707;52.086;5.418;2023-04-24T07:02:09;10.07;;;5.45;;
65936;SDS011;52707;52.086;5.418;2023-04-24T07:04:35;8.60;;;5.60;;
65936;SDS011;52707;52.086;5.418;2023-04-24T07:07:02;12.40;;;6.32;;
65936;SDS011;52707;52.086;5.418;2023-04-24T07:09:28;15.63;;;6.60;;
65936;SDS011;52707;52.086;5.418;2023-04-24T07:11:54;13.20;;;7.20;;
65936;SDS011;52707;52.086;5.418;2023-04-24T07:14:22;12.70;;;7.32;;
65936;SDS011;52707;52.086;5.418;2023-04-24T07:16:48;14.93;;;7.15;;
65936;SDS011;52707;52.086;5.418;2023-04-24T07:19:15;10.40;;;6.75;;
65936;SDS011;52707;52.086;5.418;2023-04-24T07:21:41;16.63;;;7.72;;
65936;SDS011;52707;52.086;5.418;2023-04-24T07:24:07;13.63;;;7.38;;
65936;SDS011;52707;52.086;5.418;2023-04-24T07:26:38;14.23;;;7.25;;
65936;SDS011;52707;52.086;5.418;2023-04-24T07:29:06;20.02;;;7.60;;
65936;SDS011;52707;52.086;5.418;2023-04-24T07:31:32;12.63;;;7.13;;
65936;SDS011;52707;52.086;5.418;2023-04-24T07:33:59;15.05;;;7.82;;
65936;SDS011;52707;52.086;5.418;2023-04-24T07:36:25;20.25;;;7.78;;
65936;SDS011;52707;52.086;5.418;2023-04-24T07:38:52;25.77;;;9.10;;
65936;SDS011;52707;52.086;5.418;2023-04-24T07:41:19;24.80;;;8.50;;
65936;SDS011;52707;52.086;5.418;2023-04-24T07:43:45;19.02;;;7.63;;
65936;SDS011;52707;52.086;5.418;2023-04-24T07:46:11;17.17;;;7.13;;
65936;SDS011;52707;52.086;5.418;2023-04-24T07:48:38;18.42;;;7.10;;
65936;SDS011;52707;52.086;5.418;2023-04-24T07:51:04;14.07;;;6.93;;
65936;SDS011;52707;52.086;5.418;2023-04-24T07:53:31;13.63;;;7.30;;
65936;SDS011;52707;52.086;5.418;2023-04-24T07:55:57;20.48;;;7.40;;
65936;SDS011;52707;52.086;5.418;2023-04-24T07:58:23;19.92;;;7.28;;
65936;SDS011;52707;52.086;5.418;2023-04-24T08:00:50;18.55;;;7.47;;
65936;SDS011;52707;52.086;5.418;2023-04-24T08:03:16;17.48;;;7.38;;
65936;SDS011;52707;52.086;5.418;2023-04-24T08:05:45;15.60;;;6.45;;
65936;SDS011;52707;52.086;5.418;2023-04-24T08:08:12;15.88;;;7.18;;
65936;SDS011;52707;52.086;5.418;2023-04-24T08:10:39;23.05;;;6.68;;
65936;SDS011;52707;52.086;5.418;2023-04-24T08:13:05;20.02;;;7.43;;
65936;SDS011;52707;52.086;5.418;2023-04-24T08:15:32;22.23;;;6.95;;
65936;SDS011;52707;52.086;5.418;2023-04-24T08:17:58;15.15;;;5.10;;
65936;SDS011;52707;52.086;5.418;2023-04-24T08:20:24;13.77;;;5.40;;
65936;SDS011;52707;52.086;5.418;2023-04-24T08:22:51;15.15;;;5.07;;
65936;SDS011;52707;52.086;5.418;2023-04-24T08:25:17;18.17;;;4.47;;
65936;SDS011;52707;52.086;5.418;2023-04-24T08:27:45;19.45;;;4.45;;
65936;SDS011;52707;52.086;5.418;2023-04-24T08:30:11;21.27;;;3.90;;
65936;SDS011;52707;52.086;5.418;2023-04-24T08:32:38;17.70;;;3.97;;
65936;SDS011;52707;52.086;5.418;2023-04-24T08:35:04;20.70;;;3.70;;
65936;SDS011;52707;52.086;5.418;2023-04-24T08:37:31;16.08;;;3.75;;
65936;SDS011;52707;52.086;5.418;2023-04-24T08:39:57;24.25;;;3.42;;
65936;SDS011;52707;52.086;5.418;2023-04-24T08:42:23;23.55;;;3.10;;
65936;SDS011;52707;52.086;5.418;2023-04-24T08:44:50;13.02;;;2.97;;
65936;SDS011;52707;52.086;5.418;2023-04-24T08:47:17;25.92;;;4.95;;
65936;SDS011;52707;52.086;5.418;2023-04-24T08:49:44;17.92;;;3.38;;
65936;SDS011;52707;52.086;5.418;2023-04-24T08:52:11;28.90;;;4.82;;
65936;SDS011;52707;52.086;5.418;2023-04-24T08:54:39;21.10;;;3.33;;
65936;SDS011;52707;52.086;5.418;2023-04-24T08:57:06;27.08;;;4.20;;
65936;SDS011;52707;52.086;5.418;2023-04-24T08:59:34;18.15;;;3.40;;
65936;SDS011;52707;52.086;5.418;2023-04-24T09:02:01;14.20;;;2.78;;
65936;SDS011;52707;52.086;5.418;2023-04-24T09:04:29;13.52;;;3.72;;
65936;SDS011;52707;52.086;5.418;2023-04-24T09:06:57;7.70;;;2.38;;
65936;SDS011;52707;52.086;5.418;2023-04-24T09:09:24;16.95;;;2.60;;
65936;SDS011;52707;52.086;5.418;2023-04-24T09:11:51;17.70;;;2.78;;
65936;SDS011;52707;52.086;5.418;2023-04-24T09:14:19;16.40;;;2.97;;
65936;SDS011;52707;52.086;5.418;2023-04-24T09:16:46;18.15;;;2.47;;
65936;SDS011;52707;52.086;5.418;2023-04-24T09:19:13;10.50;;;3.13;;
65936;SDS011;52707;52.086;5.418;2023-04-24T09:21:39;14.07;;;2.95;;
65936;SDS011;52707;52.086;5.418;2023-04-24T09:24:17;10.50;;;2.67;;
65936;SDS011;52707;52.086;5.418;2023-04-24T09:26:44;12.68;;;2.70;;
65936;SDS011;52707;52.086;5.418;2023-04-24T09:29:14;11.80;;;2.97;;
65936;SDS011;52707;52.086;5.418;2023-04-24T09:31:41;18.00;;;3.08;;
65936;SDS011;52707;52.086;5.418;2023-04-24T09:34:08;18.35;;;2.50;;
65936;SDS011;52707;52.086;5.418;2023-04-24T09:36:35;11.25;;;2.35;;
65936;SDS011;52707;52.086;5.418;2023-04-24T09:39:04;11.82;;;2.53;;
65936;SDS011;52707;52.086;5.418;2023-04-24T09:41:32;15.27;;;3.15;;
65936;SDS011;52707;52.086;5.418;2023-04-24T09:44:10;15.23;;;3.25;;
65936;SDS011;52707;52.086;5.418;2023-04-24T09:46:36;12.40;;;2.45;;
65936;SDS011;52707;52.086;5.418;2023-04-24T09:49:10;17.40;;;3.80;;
65936;SDS011;52707;52.086;5.418;2023-04-24T09:51:37;12.90;;;3.00;;
65936;SDS011;52707;52.086;5.418;2023-04-24T09:54:04;20.10;;;3.08;;
65936;SDS011;52707;52.086;5.418;2023-04-24T09:56:33;14.18;;;2.97;;
65936;SDS011;52707;52.086;5.418;2023-04-24T09:59:06;13.13;;;2.88;;
65936;SDS011;52707;52.086;5.418;2023-04-24T10:01:33;14.15;;;3.05;;
65936;SDS011;52707;52.086;5.418;2023-04-24T10:04:00;9.77;;;2.58;;
65936;SDS011;52707;52.086;5.418;2023-04-24T10:06:31;14.38;;;3.13;;
65936;SDS011;52707;52.086;5.418;2023-04-24T10:08:57;11.60;;;2.17;;
65936;SDS011;52707;52.086;5.418;2023-04-24T10:11:26;11.25;;;2.25;;
65936;SDS011;52707;52.086;5.418;2023-04-24T10:13:52;11.82;;;2.28;;
65936;SDS011;52707;52.086;5.418;2023-04-24T10:16:19;14.50;;;2.75;;
65936;SDS011;52707;52.086;5.418;2023-04-24T10:18:47;12.50;;;2.10;;
65936;SDS011;52707;52.086;5.418;2023-04-24T10:21:17;4.80;;;1.77;;
65936;SDS011;52707;52.086;5.418;2023-04-24T10:23:43;7.60;;;1.70;;
65936;SDS011;52707;52.086;5.418;2023-04-24T10:26:14;12.68;;;1.85;;
65936;SDS011;52707;52.086;5.418;2023-04-24T10:28:44;5.40;;;1.27;;
65936;SDS011;52707;52.086;5.418;2023-04-24T10:31:11;12.38;;;1.67;;
65936;SDS011;52707;52.086;5.418;2023-04-24T10:33:38;5.25;;;1.48;;
65936;SDS011;52707;52.086;5.418;2023-04-24T10:36:07;7.07;;;1.30;;
65936;SDS011;52707;52.086;5.418;2023-04-24T10:38:35;7.38;;;1.60;;
65936;SDS011;52707;52.086;5.418;2023-04-24T10:41:09;4.38;;;1.23;;
65936;SDS011;52707;52.086;5.418;2023-04-24T10:43:40;3.83;;;0.90;;
65936;SDS011;52707;52.086;5.418;2023-04-24T10:46:07;4.43;;;1.00;;
65936;SDS011;52707;52.086;5.418;2023-04-24T10:48:34;4.40;;;0.80;;
65936;SDS011;52707;52.086;5.418;2023-04-24T10:51:01;4.13;;;1.10;;
65936;SDS011;52707;52.086;5.418;2023-04-24T10:53:28;5.03;;;1.23;;
65936;SDS011;52707;52.086;5.418;2023-04-24T10:58:21;1.70;;;0.55;;
65936;SDS011;52707;52.086;5.418;2023-04-24T11:00:58;3.53;;;1.02;;
65936;SDS011;52707;52.086;5.418;2023-04-24T11:03:25;4.70;;;1.05;;
65936;SDS011;52707;52.086;5.418;2023-04-24T11:08:23;5.75;;;1.15;;
65936;SDS011;52707;52.086;5.418;2023-04-24T11:18:50;3.65;;;1.00;;
65936;SDS011;52707;52.086;5.418;2023-04-24T11:21:19;7.00;;;1.52;;
65936;SDS011;52707;52.086;5.418;2023-04-24T11:23:45;6.50;;;1.40;;
65936;SDS011;52707;52.086;5.418;2023-04-24T11:26:14;11.05;;;1.60;;
65936;SDS011;52707;52.086;5.418;2023-04-24T11:28:46;5.05;;;1.02;;
65936;SDS011;52707;52.086;5.418;2023-04-24T11:34:02;2.75;;;0.80;;
65936;SDS011;52707;52.086;5.418;2023-04-24T11:36:31;3.83;;;1.02;;
65936;SDS011;52707;52.086;5.418;2023-04-24T11:38:57;8.13;;;1.20;;
65936;SDS011;52707;52.086;5.418;2023-04-24T11:41:23;5.60;;;1.13;;
65936;SDS011;52707;52.086;5.418;2023-04-24T11:43:52;2.38;;;1.08;;
65936;SDS011;52707;52.086;5.418;2023-04-24T11:46:20;7.80;;;1.13;;
65936;SDS011;52707;52.086;5.418;2023-04-24T11:48:47;11.27;;;3.00;;
65936;SDS011;52707;52.086;5.418;2023-04-24T11:51:13;5.57;;;0.90;;
65936;SDS011;52707;52.086;5.418;2023-04-24T11:53:40;4.53;;;1.00;;
65936;SDS011;52707;52.086;5.418;2023-04-24T11:56:08;3.22;;;0.73;;
65936;SDS011;52707;52.086;5.418;2023-04-24T11:58:38;2.72;;;0.80;;
65936;SDS011;52707;52.086;5.418;2023-04-24T12:01:04;1.57;;;0.70;;
65936;SDS011;52707;52.086;5.418;2023-04-24T12:03:31;2.28;;;1.15;;
65936;SDS011;52707;52.086;5.418;2023-04-24T12:06:05;1.65;;;0.50;;
65936;SDS011;52707;52.086;5.418;2023-04-24T12:08:32;5.30;;;0.60;;
65936;SDS011;52707;52.086;5.418;2023-04-24T12:11:01;2.22;;;0.60;;
65936;SDS011;52707;52.086;5.418;2023-04-24T12:13:27;1.33;;;0.50;;
65936;SDS011;52707;52.086;5.418;2023-04-24T12:15:54;2.97;;;0.75;;
65936;SDS011;52707;52.086;5.418;2023-04-24T12:18:23;3.90;;;0.65;;
65936;SDS011;52707;52.086;5.418;2023-04-24T12:20:49;1.30;;;0.68;;
65936;SDS011;52707;52.086;5.418;2023-04-24T12:23:16;4.75;;;1.00;;
65936;SDS011;52707;52.086;5.418;2023-04-24T12:25:43;7.85;;;1.10;;
65936;SDS011;52707;52.086;5.418;2023-04-24T12:28:12;8.48;;;1.08;;
65936;SDS011;52707;52.086;5.418;2023-04-24T12:30:48;6.82;;;1.10;;
65936;SDS011;52707;52.086;5.418;2023-04-24T12:33:18;5.93;;;1.30;;
65936;SDS011;52707;52.086;5.418;2023-04-24T12:35:45;9.07;;;1.13;;
65936;SDS011;52707;52.086;5.418;2023-04-24T12:38:12;7.80;;;1.05;;
65936;SDS011;52707;52.086;5.418;2023-04-24T12:40:40;6.15;;;1.48;;
65936;SDS011;52707;52.086;5.418;2023-04-24T12:43:14;5.22;;;1.40;;
65936;SDS011;52707;52.086;5.418;2023-04-24T12:45:41;10.65;;;2.15;;
65936;SDS011;52707;52.086;5.418;2023-04-24T12:48:07;6.50;;;1.88;;
65936;SDS011;52707;52.086;5.418;2023-04-24T12:50:33;11.18;;;1.48;;
65936;SDS011;52707;52.086;5.418;2023-04-24T12:53:00;6.85;;;1.48;;
65936;SDS011;52707;52.086;5.418;2023-04-24T12:55:26;19.50;;;2.20;;
65936;SDS011;52707;52.086;5.418;2023-04-24T12:57:52;5.57;;;1.80;;
65936;SDS011;52707;52.086;5.418;2023-04-24T13:00:21;14.23;;;2.20;;
65936;SDS011;52707;52.086;5.418;2023-04-24T13:02:47;7.68;;;1.80;;
65936;SDS011;52707;52.086;5.418;2023-04-24T13:05:14;12.05;;;1.98;;
65936;SDS011;52707;52.086;5.418;2023-04-24T13:07:41;7.30;;;1.42;;
65936;SDS011;52707;52.086;5.418;2023-04-24T13:10:08;13.48;;;2.25;;
65936;SDS011;52707;52.086;5.418;2023-04-24T13:12:34;10.13;;;1.70;;
65936;SDS011;52707;52.086;5.418;2023-04-24T13:15:00;9.73;;;2.33;;
65936;SDS011;52707;52.086;5.418;2023-04-24T13:17:27;11.77;;;2.10;;
65936;SDS011;52707;52.086;5.418;2023-04-24T13:19:54;8.70;;;1.95;;
65936;SDS011;52707;52.086;5.418;2023-04-24T13:22:20;13.68;;;2.35;;
65936;SDS011;52707;52.086;5.418;2023-04-24T13:24:47;10.13;;;2.40;;
65936;SDS011;52707;52.086;5.418;2023-04-24T13:27:15;14.80;;;2.58;;
65936;SDS011;52707;52.086;5.418;2023-04-24T13:29:41;19.13;;;2.45;;
65936;SDS011;52707;52.086;5.418;2023-04-24T13:32:08;16.38;;;2.30;;
65936;SDS011;52707;52.086;5.418;2023-04-24T13:34:34;14.80;;;2.65;;
65936;SDS011;52707;52.086;5.418;2023-04-24T13:37:01;16.10;;;3.03;;
65936;SDS011;52707;52.086;5.418;2023-04-24T13:39:30;13.55;;;2.63;;
65936;SDS011;52707;52.086;5.418;2023-04-24T13:41:56;17.40;;;2.55;;
65936;SDS011;52707;52.086;5.418;2023-04-24T13:44:23;10.15;;;2.13;;
65936;SDS011;52707;52.086;5.418;2023-04-24T13:46:50;10.70;;;2.75;;
65936;SDS011;52707;52.086;5.418;2023-04-24T13:49:18;13.85;;;2.42;;
65936;SDS011;52707;52.086;5.418;2023-04-24T13:51:44;11.05;;;2.30;;
65936;SDS011;52707;52.086;5.418;2023-04-24T13:54:11;10.57;;;2.10;;
65936;SDS011;52707;52.086;5.418;2023-04-24T13:56:38;17.65;;;3.00;;
65936;SDS011;52707;52.086;5.418;2023-04-24T13:59:05;12.05;;;2.38;;
65936;SDS011;52707;52.086;5.418;2023-04-24T14:01:31;14.15;;;2.33;;
65936;SDS011;52707;52.086;5.418;2023-04-24T14:03:58;16.52;;;3.20;;
65936;SDS011;52707;52.086;5.418;2023-04-24T14:06:25;13.23;;;1.98;;
65936;SDS011;52707;52.086;5.418;2023-04-24T14:08:52;16.80;;;2.55;;
65936;SDS011;52707;52.086;5.418;2023-04-24T14:11:18;8.77;;;2.38;;
65936;SDS011;52707;52.086;5.418;2023-04-24T14:13:45;9.55;;;2.38;;
65936;SDS011;52707;52.086;5.418;2023-04-24T14:16:12;8.88;;;1.77;;
65936;SDS011;52707;52.086;5.418;2023-04-24T14:18:38;9.27;;;2.20;;
65936;SDS011;52707;52.086;5.418;2023-04-24T14:21:05;10.65;;;2.35;;
65936;SDS011;52707;52.086;5.418;2023-04-24T14:23:31;9.70;;;2.33;;
65936;SDS011;52707;52.086;5.418;2023-04-24T14:25:58;18.92;;;2.78;;
65936;SDS011;52707;52.086;5.418;2023-04-24T14:28:24;17.52;;;2.80;;
65936;SDS011;52707;52.086;5.418;2023-04-24T14:30:52;14.45;;;3.60;;
65936;SDS011;52707;52.086;5.418;2023-04-24T14:33:19;17.38;;;3.28;;
65936;SDS011;52707;52.086;5.418;2023-04-24T14:35:45;16.90;;;2.67;;
65936;SDS011;52707;52.086;5.418;2023-04-24T14:38:11;13.30;;;2.60;;
65936;SDS011;52707;52.086;5.418;2023-04-24T14:40:38;7.95;;;2.63;;
65936;SDS011;52707;52.086;5.418;2023-04-24T14:43:07;13.98;;;3.30;;
65936;SDS011;52707;52.086;5.418;2023-04-24T14:45:33;12.88;;;2.50;;
65936;SDS011;52707;52.086;5.418;2023-04-24T14:48:00;10.48;;;2.35;;
65936;SDS011;52707;52.086;5.418;2023-04-24T14:50:26;13.18;;;2.90;;
65936;SDS011;52707;52.086;5.418;2023-04-24T14:52:54;10.65;;;2.08;;
65936;SDS011;52707;52.086;5.418;2023-04-24T14:55:23;8.02;;;2.38;;
65936;SDS011;52707;52.086;5.418;2023-04-24T14:57:50;14.68;;;2.97;;